sensor_id;sensor_type;location;lat;lon;timestamp;P1;durP1;ratioP1;P2;durP2;ratioP2
39880;SDS011;25554;44.954;10.068;2022-11-04T00:01:44;221.55;;;69.65;;
39880;SDS011;25554;44.954;10.068;2022-11-04T00:04:12;194.05;;;64.43;;
39880;SDS011;25554;44.954;10.068;2022-11-04T00:06:40;215.25;;;69.72;;
39880;SDS011;25554;44.954;10.068;2022-11-04T00:09:07;191.93;;;64.30;;
39880;SDS011;25554;44.954;10.068;2022-11-04T00:11:35;210.65;;;71.82;;
39880;SDS011;25554;44.954;10.068;2022-11-04T00:14:20;173.93;;;65.03;;
39880;SDS011;25554;44.954;10.068;2022-11-04T00:16:47;181.30;;;64.57;;
39880;SDS011;25554;44.954;10.068;2022-11-04T00:19:32;180.82;;;62.58;;
39880;SDS011;25554;44.954;10.068;2022-11-04T00:22:18;183.77;;;62.95;;
39880;SDS011;25554;44.954;10.068;2022-11-04T00:25:23;185.15;;;63.35;;
39880;SDS011;25554;44.954;10.068;2022-11-04T00:28:12;170.88;;;62.03;;
39880;SDS011;25554;44.954;10.068;2022-11-04T00:31:01;190.68;;;65.07;;
39880;SDS011;25554;44.954;10.068;2022-11-04T00:33:48;171.98;;;61.80;;
39880;SDS011;25554;44.954;10.068;2022-11-04T00:36:15;160.18;;;59.03;;
39880;SDS011;25554;44.954;10.068;2022-11-04T00:38:42;164.60;;;62.03;;
39880;SDS011;25554;44.954;10.068;2022-11-04T00:41:09;151.75;;;60.67;;
39880;SDS011;25554;44.954;10.068;2022-11-04T00:43:51;153.05;;;57.78;;
39880;SDS011;25554;44.954;10.068;2022-11-04T00:46:20;149.23;;;58.17;;
39880;SDS011;25554;44.954;10.068;2022-11-04T00:51:13;145.23;;;57.65;;
39880;SDS011;25554;44.954;10.068;2022-11-04T00:53:39;150.40;;;57.08;;
39880;SDS011;25554;44.954;10.068;2022-11-04T00:58:32;142.07;;;55.55;;
39880;SDS011;25554;44.954;10.068;2022-11-04T01:03:24;134.60;;;53.90;;
39880;SDS011;25554;44.954;10.068;2022-11-04T01:08:17;133.07;;;53.10;;
39880;SDS011;25554;44.954;10.068;2022-11-04T01:10:44;154.48;;;55.65;;
39880;SDS011;25554;44.954;10.068;2022-11-04T01:15:37;138.13;;;53.33;;
39880;SDS011;25554;44.954;10.068;2022-11-04T01:18:04;151.60;;;56.53;;
39880;SDS011;25554;44.954;10.068;2022-11-04T01:20:31;147.02;;;57.33;;
39880;SDS011;25554;44.954;10.068;2022-11-04T01:22:58;152.13;;;55.97;;
39880;SDS011;25554;44.954;10.068;2022-11-04T01:27:50;148.07;;;54.30;;
39880;SDS011;25554;44.954;10.068;2022-11-04T01:30:17;144.15;;;54.13;;
39880;SDS011;25554;44.954;10.068;2022-11-04T01:35:10;135.43;;;51.97;;
39880;SDS011;25554;44.954;10.068;2022-11-04T01:40:02;145.82;;;55.33;;
39880;SDS011;25554;44.954;10.068;2022-11-04T01:42:29;143.77;;;56.45;;
39880;SDS011;25554;44.954;10.068;2022-11-04T01:52:20;146.25;;;55.10;;
39880;SDS011;25554;44.954;10.068;2022-11-04T01:54:51;142.93;;;54.85;;
39880;SDS011;25554;44.954;10.068;2022-11-04T01:57:25;148.30;;;56.25;;
39880;SDS011;25554;44.954;10.068;2022-11-04T02:02:25;125.38;;;50.80;;
39880;SDS011;25554;44.954;10.068;2022-11-04T02:07:18;142.18;;;51.25;;
39880;SDS011;25554;44.954;10.068;2022-11-04T02:12:10;153.77;;;55.05;;
39880;SDS011;25554;44.954;10.068;2022-11-04T02:14:56;152.40;;;56.03;;
39880;SDS011;25554;44.954;10.068;2022-11-04T02:24:41;145.02;;;54.20;;
39880;SDS011;25554;44.954;10.068;2022-11-04T02:29:38;137.85;;;53.42;;
39880;SDS011;25554;44.954;10.068;2022-11-04T02:32:18;134.85;;;52.75;;
39880;SDS011;25554;44.954;10.068;2022-11-04T02:37:36;147.82;;;54.47;;
39880;SDS011;25554;44.954;10.068;2022-11-04T02:50:28;153.40;;;55.97;;
39880;SDS011;25554;44.954;10.068;2022-11-04T02:55:55;166.70;;;58.22;;
39880;SDS011;25554;44.954;10.068;2022-11-04T02:58:24;164.95;;;62.50;;
39880;SDS011;25554;44.954;10.068;2022-11-04T03:00:55;143.98;;;55.33;;
39880;SDS011;25554;44.954;10.068;2022-11-04T03:03:25;141.65;;;54.28;;
39880;SDS011;25554;44.954;10.068;2022-11-04T03:05:55;147.13;;;55.92;;
39880;SDS011;25554;44.954;10.068;2022-11-04T03:08:35;151.18;;;55.88;;
39880;SDS011;25554;44.954;10.068;2022-11-04T03:11:11;134.93;;;54.30;;
39880;SDS011;25554;44.954;10.068;2022-11-04T03:13:45;139.15;;;52.22;;
39880;SDS011;25554;44.954;10.068;2022-11-04T03:16:18;135.18;;;51.67;;
39880;SDS011;25554;44.954;10.068;2022-11-04T03:21:32;119.80;;;48.15;;
39880;SDS011;25554;44.954;10.068;2022-11-04T03:24:03;129.45;;;48.88;;
39880;SDS011;25554;44.954;10.068;2022-11-04T03:26:31;121.70;;;47.13;;
39880;SDS011;25554;44.954;10.068;2022-11-04T03:34:57;118.35;;;45.80;;
39880;SDS011;25554;44.954;10.068;2022-11-04T03:39:50;124.25;;;46.88;;
39880;SDS011;25554;44.954;10.068;2022-11-04T03:44:50;112.63;;;44.75;;
39880;SDS011;25554;44.954;10.068;2022-11-04T03:47:18;118.55;;;46.53;;
39880;SDS011;25554;44.954;10.068;2022-11-04T03:49:47;114.70;;;42.80;;
39880;SDS011;25554;44.954;10.068;2022-11-04T03:52:15;113.18;;;45.67;;
39880;SDS011;25554;44.954;10.068;2022-11-04T03:54:43;104.13;;;43.97;;
39880;SDS011;25554;44.954;10.068;2022-11-04T04:05:05;90.50;;;37.58;;
39880;SDS011;25554;44.954;10.068;2022-11-04T04:07:38;74.80;;;33.80;;
39880;SDS011;25554;44.954;10.068;2022-11-04T04:10:47;61.80;;;30.38;;
39880;SDS011;25554;44.954;10.068;2022-11-04T04:15:43;53.13;;;25.10;;
39880;SDS011;25554;44.954;10.068;2022-11-04T04:18:15;46.28;;;24.55;;
39880;SDS011;25554;44.954;10.068;2022-11-04T04:20:48;46.85;;;22.77;;
39880;SDS011;25554;44.954;10.068;2022-11-04T04:23:19;39.58;;;21.48;;
39880;SDS011;25554;44.954;10.068;2022-11-04T04:26:09;42.97;;;20.67;;
39880;SDS011;25554;44.954;10.068;2022-11-04T04:28:55;38.97;;;20.38;;
39880;SDS011;25554;44.954;10.068;2022-11-04T04:31:22;37.65;;;19.92;;
39880;SDS011;25554;44.954;10.068;2022-11-04T04:34:10;31.65;;;17.05;;
39880;SDS011;25554;44.954;10.068;2022-11-04T04:36:44;31.55;;;16.88;;
39880;SDS011;25554;44.954;10.068;2022-11-04T04:42:10;21.40;;;12.40;;
39880;SDS011;25554;44.954;10.068;2022-11-04T04:44:56;19.35;;;11.43;;
39880;SDS011;25554;44.954;10.068;2022-11-04T04:47:33;17.40;;;10.68;;
39880;SDS011;25554;44.954;10.068;2022-11-04T04:50:07;16.70;;;10.07;;
39880;SDS011;25554;44.954;10.068;2022-11-04T04:52:39;14.80;;;9.43;;
39880;SDS011;25554;44.954;10.068;2022-11-04T04:55:10;14.48;;;9.25;;
39880;SDS011;25554;44.954;10.068;2022-11-04T04:57:37;14.57;;;9.55;;
39880;SDS011;25554;44.954;10.068;2022-11-04T05:00:04;14.65;;;9.30;;
39880;SDS011;25554;44.954;10.068;2022-11-04T05:02:32;13.13;;;7.85;;
39880;SDS011;25554;44.954;10.068;2022-11-04T05:04:59;8.18;;;4.60;;
39880;SDS011;25554;44.954;10.068;2022-11-04T05:09:51;4.28;;;2.72;;
39880;SDS011;25554;44.954;10.068;2022-11-04T05:12:18;2.47;;;1.65;;
39880;SDS011;25554;44.954;10.068;2022-11-04T05:17:11;1.50;;;0.82;;
39880;SDS011;25554;44.954;10.068;2022-11-04T05:22:04;0.65;;;0.30;;
39880;SDS011;25554;44.954;10.068;2022-11-04T05:26:57;0.93;;;0.50;;
39880;SDS011;25554;44.954;10.068;2022-11-04T05:31:49;0.20;;;0.00;;
39880;SDS011;25554;44.954;10.068;2022-11-04T05:36:42;0.65;;;0.10;;
39880;SDS011;25554;44.954;10.068;2022-11-04T05:39:10;0.77;;;0.28;;
39880;SDS011;25554;44.954;10.068;2022-11-04T05:41:37;4.22;;;0.10;;
39880;SDS011;25554;44.954;10.068;2022-11-04T05:46:31;1.85;;;0.10;;
39880;SDS011;25554;44.954;10.068;2022-11-04T05:51:25;0.10;;;0.10;;
39880;SDS011;25554;44.954;10.068;2022-11-04T05:53:52;0.43;;;0.22;;
39880;SDS011;25554;44.954;10.068;2022-11-04T05:56:19;0.93;;;0.25;;
39880;SDS011;25554;44.954;10.068;2022-11-04T05:58:46;2.53;;;0.20;;
39880;SDS011;25554;44.954;10.068;2022-11-04T06:03:49;1.27;;;0.15;;
39880;SDS011;25554;44.954;10.068;2022-11-04T06:06:16;5.47;;;0.22;;
39880;SDS011;25554;44.954;10.068;2022-11-04T06:08:42;1.48;;;0.10;;
39880;SDS011;25554;44.954;10.068;2022-11-04T06:13:35;0.45;;;0.20;;
39880;SDS011;25554;44.954;10.068;2022-11-04T06:18:28;0.73;;;0.22;;
39880;SDS011;25554;44.954;10.068;2022-11-04T06:23:39;1.58;;;0.17;;
39880;SDS011;25554;44.954;10.068;2022-11-04T06:26:07;1.35;;;0.30;;
39880;SDS011;25554;44.954;10.068;2022-11-04T06:28:33;3.08;;;0.25;;
39880;SDS011;25554;44.954;10.068;2022-11-04T06:33:28;2.03;;;0.30;;
39880;SDS011;25554;44.954;10.068;2022-11-04T06:36:01;0.90;;;0.22;;
39880;SDS011;25554;44.954;10.068;2022-11-04T06:38:30;3.17;;;0.20;;
39880;SDS011;25554;44.954;10.068;2022-11-04T06:40:57;3.45;;;0.28;;
39880;SDS011;25554;44.954;10.068;2022-11-04T06:43:24;1.38;;;0.35;;
39880;SDS011;25554;44.954;10.068;2022-11-04T06:48:20;1.80;;;0.30;;
39880;SDS011;25554;44.954;10.068;2022-11-04T06:53:13;0.90;;;0.20;;
39880;SDS011;25554;44.954;10.068;2022-11-04T06:58:05;0.22;;;0.10;;
39880;SDS011;25554;44.954;10.068;2022-11-04T07:02:58;0.20;;;0.03;;
39880;SDS011;25554;44.954;10.068;2022-11-04T07:07:50;0.28;;;0.10;;
39880;SDS011;25554;44.954;10.068;2022-11-04T07:10:17;0.08;;;0.08;;
39880;SDS011;25554;44.954;10.068;2022-11-04T07:12:43;0.00;;;0.00;;
39880;SDS011;25554;44.954;10.068;2022-11-04T07:17:36;0.20;;;0.10;;
39880;SDS011;25554;44.954;10.068;2022-11-04T07:22:32;0.00;;;0.00;;
39880;SDS011;25554;44.954;10.068;2022-11-04T07:27:25;0.63;;;0.10;;
39880;SDS011;25554;44.954;10.068;2022-11-04T07:32:17;0.47;;;0.10;;
39880;SDS011;25554;44.954;10.068;2022-11-04T07:34:44;0.15;;;0.00;;
39880;SDS011;25554;44.954;10.068;2022-11-04T07:37:10;0.05;;;0.00;;
39880;SDS011;25554;44.954;10.068;2022-11-04T07:42:03;0.70;;;0.10;;
39880;SDS011;25554;44.954;10.068;2022-11-04T07:46:55;0.47;;;0.10;;
39880;SDS011;25554;44.954;10.068;2022-11-04T07:51:50;0.25;;;0.03;;
39880;SDS011;25554;44.954;10.068;2022-11-04T07:54:16;0.98;;;0.05;;
39880;SDS011;25554;44.954;10.068;2022-11-04T07:59:09;0.00;;;0.00;;
39880;SDS011;25554;44.954;10.068;2022-11-04T08:01:35;0.30;;;0.10;;
39880;SDS011;25554;44.954;10.068;2022-11-04T08:06:29;0.30;;;0.05;;
39880;SDS011;25554;44.954;10.068;2022-11-04T08:08:56;0.25;;;0.10;;
39880;SDS011;25554;44.954;10.068;2022-11-04T08:11:24;0.10;;;0.10;;
39880;SDS011;25554;44.954;10.068;2022-11-04T08:13:53;0.08;;;0.08;;
39880;SDS011;25554;44.954;10.068;2022-11-04T08:16:21;0.30;;;0.20;;
39880;SDS011;25554;44.954;10.068;2022-11-04T08:18:48;0.10;;;0.10;;
39880;SDS011;25554;44.954;10.068;2022-11-04T08:21:17;0.43;;;0.20;;
39880;SDS011;25554;44.954;10.068;2022-11-04T08:23:44;0.10;;;0.08;;
39880;SDS011;25554;44.954;10.068;2022-11-04T08:26:16;0.30;;;0.10;;
39880;SDS011;25554;44.954;10.068;2022-11-04T08:28:44;0.47;;;0.10;;
39880;SDS011;25554;44.954;10.068;2022-11-04T08:33:37;0.35;;;0.05;;
39880;SDS011;25554;44.954;10.068;2022-11-04T08:36:06;0.30;;;0.00;;
39880;SDS011;25554;44.954;10.068;2022-11-04T08:38:36;0.60;;;0.05;;
39880;SDS011;25554;44.954;10.068;2022-11-04T08:41:03;0.13;;;0.00;;
39880;SDS011;25554;44.954;10.068;2022-11-04T08:43:31;0.20;;;0.00;;
39880;SDS011;25554;44.954;10.068;2022-11-04T08:45:59;0.10;;;0.00;;
39880;SDS011;25554;44.954;10.068;2022-11-04T08:48:26;0.00;;;0.00;;
39880;SDS011;25554;44.954;10.068;2022-11-04T08:50:54;0.00;;;0.00;;
39880;SDS011;25554;44.954;10.068;2022-11-04T08:53:23;0.10;;;0.10;;
39880;SDS011;25554;44.954;10.068;2022-11-04T08:55:50;0.20;;;0.00;;
39880;SDS011;25554;44.954;10.068;2022-11-04T08:58:16;0.40;;;0.10;;
39880;SDS011;25554;44.954;10.068;2022-11-04T09:00:43;0.00;;;0.00;;
39880;SDS011;25554;44.954;10.068;2022-11-04T09:03:10;0.00;;;0.00;;
39880;SDS011;25554;44.954;10.068;2022-11-04T09:05:37;0.80;;;0.10;;
39880;SDS011;25554;44.954;10.068;2022-11-04T09:08:10;1.13;;;0.10;;
39880;SDS011;25554;44.954;10.068;2022-11-04T09:10:39;0.70;;;0.10;;
39880;SDS011;25554;44.954;10.068;2022-11-04T09:13:07;0.00;;;0.00;;
39880;SDS011;25554;44.954;10.068;2022-11-04T09:15:36;0.10;;;0.05;;
39880;SDS011;25554;44.954;10.068;2022-11-04T09:18:03;0.22;;;0.10;;
39880;SDS011;25554;44.954;10.068;2022-11-04T09:22:56;0.00;;;0.00;;
39880;SDS011;25554;44.954;10.068;2022-11-04T09:25:22;0.20;;;0.10;;
39880;SDS011;25554;44.954;10.068;2022-11-04T09:27:49;0.08;;;0.08;;
39880;SDS011;25554;44.954;10.068;2022-11-04T09:32:42;0.13;;;0.00;;
39880;SDS011;25554;44.954;10.068;2022-11-04T09:37:35;0.00;;;0.00;;
39880;SDS011;25554;44.954;10.068;2022-11-04T09:42:40;0.05;;;0.00;;
39880;SDS011;25554;44.954;10.068;2022-11-04T09:45:18;0.10;;;0.00;;
39880;SDS011;25554;44.954;10.068;2022-11-04T09:47:49;0.00;;;0.00;;
39880;SDS011;25554;44.954;10.068;2022-11-04T09:50:20;0.10;;;0.00;;
39880;SDS011;25554;44.954;10.068;2022-11-04T09:53:03;0.10;;;0.08;;
39880;SDS011;25554;44.954;10.068;2022-11-04T09:58:06;1.20;;;0.10;;
39880;SDS011;25554;44.954;10.068;2022-11-04T10:00:34;2.60;;;0.00;;
39880;SDS011;25554;44.954;10.068;2022-11-04T10:14:28;0.05;;;0.00;;
39880;SDS011;25554;44.954;10.068;2022-11-04T10:17:03;0.13;;;0.00;;
39880;SDS011;25554;44.954;10.068;2022-11-04T10:27:55;0.03;;;0.00;;
39880;SDS011;25554;44.954;10.068;2022-11-04T10:30:24;0.00;;;0.00;;
39880;SDS011;25554;44.954;10.068;2022-11-04T10:32:54;0.00;;;0.00;;
39880;SDS011;25554;44.954;10.068;2022-11-04T10:35:34;0.05;;;0.00;;
39880;SDS011;25554;44.954;10.068;2022-11-04T10:38:15;0.00;;;0.00;;
39880;SDS011;25554;44.954;10.068;2022-11-04T10:40:58;0.80;;;0.10;;
39880;SDS011;25554;44.954;10.068;2022-11-04T10:48:58;0.00;;;0.00;;
39880;SDS011;25554;44.954;10.068;2022-11-04T10:51:16;1.35;;;0.00;;
39880;SDS011;25554;44.954;10.068;2022-11-04T10:53:47;0.08;;;0.00;;
39880;SDS011;25554;44.954;10.068;2022-11-04T10:56:36;0.08;;;0.08;;
39880;SDS011;25554;44.954;10.068;2022-11-04T11:01:58;0.77;;;0.03;;
39880;SDS011;25554;44.954;10.068;2022-11-04T11:04:29;0.13;;;0.03;;
39880;SDS011;25554;44.954;10.068;2022-11-04T11:07:02;1.35;;;0.10;;
39880;SDS011;25554;44.954;10.068;2022-11-04T11:09:29;0.00;;;0.00;;
39880;SDS011;25554;44.954;10.068;2022-11-04T11:14:35;0.80;;;0.13;;
39880;SDS011;25554;44.954;10.068;2022-11-04T11:19:49;0.10;;;0.10;;
39880;SDS011;25554;44.954;10.068;2022-11-04T11:22:42;0.00;;;0.00;;
39880;SDS011;25554;44.954;10.068;2022-11-04T11:25:16;0.10;;;0.00;;
39880;SDS011;25554;44.954;10.068;2022-11-04T11:32:56;0.00;;;0.00;;
39880;SDS011;25554;44.954;10.068;2022-11-04T11:35:35;0.20;;;0.00;;
39880;SDS011;25554;44.954;10.068;2022-11-04T11:38:16;0.10;;;0.08;;
39880;SDS011;25554;44.954;10.068;2022-11-04T11:40:46;0.73;;;0.10;;
39880;SDS011;25554;44.954;10.068;2022-11-04T11:43:22;0.00;;;0.00;;
39880;SDS011;25554;44.954;10.068;2022-11-04T11:45:51;0.30;;;0.10;;
39880;SDS011;25554;44.954;10.068;2022-11-04T11:48:29;0.00;;;0.00;;
39880;SDS011;25554;44.954;10.068;2022-11-04T11:50:58;0.20;;;0.00;;
39880;SDS011;25554;44.954;10.068;2022-11-04T11:53:26;0.10;;;0.00;;
39880;SDS011;25554;44.954;10.068;2022-11-04T11:58:39;0.08;;;0.00;;
39880;SDS011;25554;44.954;10.068;2022-11-04T12:04:07;0.38;;;0.00;;
39880;SDS011;25554;44.954;10.068;2022-11-04T12:11:51;0.20;;;0.00;;
39880;SDS011;25554;44.954;10.068;2022-11-04T12:14:23;0.03;;;0.00;;
39880;SDS011;25554;44.954;10.068;2022-11-04T12:16:57;0.30;;;0.00;;
39880;SDS011;25554;44.954;10.068;2022-11-04T12:22:17;0.00;;;0.00;;
39880;SDS011;25554;44.954;10.068;2022-11-04T12:33:08;0.00;;;0.00;;
39880;SDS011;25554;44.954;10.068;2022-11-04T12:38:32;1.23;;;0.80;;
39880;SDS011;25554;44.954;10.068;2022-11-04T12:41:13;0.40;;;0.20;;
39880;SDS011;25554;44.954;10.068;2022-11-04T12:46:31;2.55;;;0.10;;
39880;SDS011;25554;44.954;10.068;2022-11-04T12:53:00;0.10;;;0.10;;
39880;SDS011;25554;44.954;10.068;2022-11-04T12:55:29;0.10;;;0.08;;
39880;SDS011;25554;44.954;10.068;2022-11-04T13:00:42;0.00;;;0.00;;
39880;SDS011;25554;44.954;10.068;2022-11-04T13:03:14;0.90;;;0.00;;
39880;SDS011;25554;44.954;10.068;2022-11-04T13:05:43;0.10;;;0.03;;
39880;SDS011;25554;44.954;10.068;2022-11-04T13:13:23;0.00;;;0.00;;
39880;SDS011;25554;44.954;10.068;2022-11-04T13:15:57;0.00;;;0.00;;
39880;SDS011;25554;44.954;10.068;2022-11-04T13:18:29;0.00;;;0.00;;
39880;SDS011;25554;44.954;10.068;2022-11-04T13:21:07;0.00;;;0.00;;
39880;SDS011;25554;44.954;10.068;2022-11-04T13:23:57;0.30;;;0.10;;
39880;SDS011;25554;44.954;10.068;2022-11-04T13:26:29;0.15;;;0.10;;
39880;SDS011;25554;44.954;10.068;2022-11-04T13:28:57;0.63;;;0.20;;
39880;SDS011;25554;44.954;10.068;2022-11-04T13:31:50;1.60;;;1.05;;
39880;SDS011;25554;44.954;10.068;2022-11-04T13:34:37;2.13;;;0.80;;
39880;SDS011;25554;44.954;10.068;2022-11-04T13:40:34;0.30;;;0.10;;
39880;SDS011;25554;44.954;10.068;2022-11-04T13:45:15;0.20;;;0.17;;
39880;SDS011;25554;44.954;10.068;2022-11-04T13:47:44;1.23;;;0.30;;
39880;SDS011;25554;44.954;10.068;2022-11-04T13:50:27;1.02;;;0.10;;
39880;SDS011;25554;44.954;10.068;2022-11-04T13:53:01;0.20;;;0.10;;
39880;SDS011;25554;44.954;10.068;2022-11-04T13:55:30;1.85;;;0.10;;
39880;SDS011;25554;44.954;10.068;2022-11-04T13:57:58;0.75;;;0.10;;
39880;SDS011;25554;44.954;10.068;2022-11-04T14:00:26;0.10;;;0.10;;
39880;SDS011;25554;44.954;10.068;2022-11-04T14:08:25;0.65;;;0.45;;
39880;SDS011;25554;44.954;10.068;2022-11-04T14:16:04;2.10;;;0.32;;
39880;SDS011;25554;44.954;10.068;2022-11-04T14:18:56;0.35;;;0.10;;
39880;SDS011;25554;44.954;10.068;2022-11-04T14:23:55;0.10;;;0.05;;
39880;SDS011;25554;44.954;10.068;2022-11-04T14:26:39;0.17;;;0.13;;
39880;SDS011;25554;44.954;10.068;2022-11-04T14:29:11;0.00;;;0.00;;
39880;SDS011;25554;44.954;10.068;2022-11-04T14:31:54;18.20;;;4.03;;
39880;SDS011;25554;44.954;10.068;2022-11-04T14:34:24;7.53;;;4.57;;
39880;SDS011;25554;44.954;10.068;2022-11-04T14:36:56;8.68;;;1.65;;
39880;SDS011;25554;44.954;10.068;2022-11-04T14:39:29;0.28;;;0.10;;
39880;SDS011;25554;44.954;10.068;2022-11-04T14:42:02;0.52;;;0.10;;
39880;SDS011;25554;44.954;10.068;2022-11-04T14:44:33;0.25;;;0.10;;
39880;SDS011;25554;44.954;10.068;2022-11-04T14:52:03;0.10;;;0.10;;
39880;SDS011;25554;44.954;10.068;2022-11-04T14:54:47;0.10;;;0.10;;
39880;SDS011;25554;44.954;10.068;2022-11-04T14:57:20;0.40;;;0.17;;
39880;SDS011;25554;44.954;10.068;2022-11-04T14:59:48;0.30;;;0.10;;
39880;SDS011;25554;44.954;10.068;2022-11-04T15:02:28;1.20;;;0.20;;
39880;SDS011;25554;44.954;10.068;2022-11-04T15:04:59;1.27;;;0.20;;
39880;SDS011;25554;44.954;10.068;2022-11-04T15:07:34;4.97;;;1.65;;
39880;SDS011;25554;44.954;10.068;2022-11-04T15:10:03;3.85;;;1.95;;
39880;SDS011;25554;44.954;10.068;2022-11-04T15:12:51;1.70;;;0.30;;
39880;SDS011;25554;44.954;10.068;2022-11-04T15:15:33;0.28;;;0.17;;
39880;SDS011;25554;44.954;10.068;2022-11-04T15:18:14;0.28;;;0.15;;
39880;SDS011;25554;44.954;10.068;2022-11-04T15:20:47;0.15;;;0.13;;
39880;SDS011;25554;44.954;10.068;2022-11-04T15:23:27;0.70;;;0.52;;
39880;SDS011;25554;44.954;10.068;2022-11-04T15:28:24;0.20;;;0.20;;
39880;SDS011;25554;44.954;10.068;2022-11-04T15:31:02;0.30;;;0.20;;
39880;SDS011;25554;44.954;10.068;2022-11-04T15:33:28;0.73;;;0.20;;
39880;SDS011;25554;44.954;10.068;2022-11-04T15:35:57;0.28;;;0.28;;
39880;SDS011;25554;44.954;10.068;2022-11-04T15:38:24;0.38;;;0.30;;
39880;SDS011;25554;44.954;10.068;2022-11-04T15:40:53;0.60;;;0.28;;
39880;SDS011;25554;44.954;10.068;2022-11-04T15:43:43;0.63;;;0.20;;
39880;SDS011;25554;44.954;10.068;2022-11-04T15:46:15;0.75;;;0.38;;
39880;SDS011;25554;44.954;10.068;2022-11-04T15:48:45;0.40;;;0.30;;
39880;SDS011;25554;44.954;10.068;2022-11-04T15:51:35;1.83;;;0.30;;
39880;SDS011;25554;44.954;10.068;2022-11-04T15:54:21;0.60;;;0.30;;
39880;SDS011;25554;44.954;10.068;2022-11-04T15:56:52;1.70;;;0.53;;
39880;SDS011;25554;44.954;10.068;2022-11-04T15:59:21;1.23;;;0.45;;
39880;SDS011;25554;44.954;10.068;2022-11-04T16:01:57;3.15;;;0.65;;
39880;SDS011;25554;44.954;10.068;2022-11-04T16:04:25;2.90;;;0.77;;
39880;SDS011;25554;44.954;10.068;2022-11-04T16:09:31;0.60;;;0.40;;
39880;SDS011;25554;44.954;10.068;2022-11-04T16:12:35;3.47;;;0.38;;
39880;SDS011;25554;44.954;10.068;2022-11-04T16:15:05;0.55;;;0.40;;
39880;SDS011;25554;44.954;10.068;2022-11-04T16:17:31;7.65;;;1.05;;
39880;SDS011;25554;44.954;10.068;2022-11-04T16:22:33;5.43;;;1.33;;
39880;SDS011;25554;44.954;10.068;2022-11-04T16:25:04;2.05;;;0.82;;
39880;SDS011;25554;44.954;10.068;2022-11-04T16:27:32;5.47;;;1.30;;
39880;SDS011;25554;44.954;10.068;2022-11-04T16:30:19;1.90;;;0.90;;
39880;SDS011;25554;44.954;10.068;2022-11-04T16:37:44;5.63;;;0.90;;
39880;SDS011;25554;44.954;10.068;2022-11-04T16:40:11;5.85;;;1.02;;
39880;SDS011;25554;44.954;10.068;2022-11-04T16:42:38;3.55;;;0.82;;
39880;SDS011;25554;44.954;10.068;2022-11-04T16:47:31;9.07;;;1.95;;
39880;SDS011;25554;44.954;10.068;2022-11-04T16:50:05;5.57;;;1.95;;
39880;SDS011;25554;44.954;10.068;2022-11-04T16:52:38;5.80;;;1.38;;
39880;SDS011;25554;44.954;10.068;2022-11-04T16:57:31;4.45;;;1.95;;
39880;SDS011;25554;44.954;10.068;2022-11-04T17:04:51;5.20;;;1.92;;
39880;SDS011;25554;44.954;10.068;2022-11-04T17:09:44;5.40;;;1.00;;
39880;SDS011;25554;44.954;10.068;2022-11-04T17:12:11;1.80;;;1.20;;
39880;SDS011;25554;44.954;10.068;2022-11-04T17:17:04;5.00;;;1.20;;
39880;SDS011;25554;44.954;10.068;2022-11-04T17:19:30;4.60;;;1.48;;
39880;SDS011;25554;44.954;10.068;2022-11-04T17:21:58;1.90;;;1.48;;
39880;SDS011;25554;44.954;10.068;2022-11-04T17:24:26;2.85;;;1.13;;
39880;SDS011;25554;44.954;10.068;2022-11-04T17:29:19;4.53;;;1.55;;
39880;SDS011;25554;44.954;10.068;2022-11-04T17:34:11;1.70;;;1.38;;
39880;SDS011;25554;44.954;10.068;2022-11-04T17:39:04;6.03;;;1.60;;
39880;SDS011;25554;44.954;10.068;2022-11-04T17:44:15;2.85;;;1.10;;
39880;SDS011;25554;44.954;10.068;2022-11-04T17:51:39;1.92;;;1.23;;
39880;SDS011;25554;44.954;10.068;2022-11-04T17:54:07;2.05;;;1.27;;
39880;SDS011;25554;44.954;10.068;2022-11-04T17:56:34;1.20;;;0.88;;
39880;SDS011;25554;44.954;10.068;2022-11-04T17:59:02;16.85;;;5.95;;
39880;SDS011;25554;44.954;10.068;2022-11-04T18:01:29;12.65;;;6.03;;
39880;SDS011;25554;44.954;10.068;2022-11-04T18:03:57;6.63;;;3.90;;
39880;SDS011;25554;44.954;10.068;2022-11-04T18:06:23;5.85;;;2.67;;
39880;SDS011;25554;44.954;10.068;2022-11-04T18:08:53;7.25;;;4.97;;
39880;SDS011;25554;44.954;10.068;2022-11-04T18:11:21;12.30;;;6.03;;
39880;SDS011;25554;44.954;10.068;2022-11-04T18:14:15;5.72;;;3.80;;
39880;SDS011;25554;44.954;10.068;2022-11-04T18:16:43;3.53;;;2.63;;
39880;SDS011;25554;44.954;10.068;2022-11-04T18:19:10;4.07;;;2.50;;
39880;SDS011;25554;44.954;10.068;2022-11-04T18:24:03;6.05;;;2.20;;
39880;SDS011;25554;44.954;10.068;2022-11-04T18:26:29;9.18;;;4.57;;
39880;SDS011;25554;44.954;10.068;2022-11-04T18:31:24;9.15;;;4.43;;
39880;SDS011;25554;44.954;10.068;2022-11-04T18:33:52;9.07;;;4.45;;
39880;SDS011;25554;44.954;10.068;2022-11-04T18:38:45;5.45;;;2.58;;
39880;SDS011;25554;44.954;10.068;2022-11-04T18:41:12;2.92;;;2.25;;
39880;SDS011;25554;44.954;10.068;2022-11-04T18:43:39;5.20;;;2.30;;
39880;SDS011;25554;44.954;10.068;2022-11-04T18:46:09;2.80;;;2.17;;
39880;SDS011;25554;44.954;10.068;2022-11-04T18:48:37;4.13;;;2.42;;
39880;SDS011;25554;44.954;10.068;2022-11-04T18:51:05;5.00;;;2.63;;
39880;SDS011;25554;44.954;10.068;2022-11-04T18:53:34;3.72;;;2.60;;
39880;SDS011;25554;44.954;10.068;2022-11-04T18:56:02;6.13;;;2.60;;
39880;SDS011;25554;44.954;10.068;2022-11-04T18:58:33;4.97;;;3.03;;
39880;SDS011;25554;44.954;10.068;2022-11-04T19:01:05;5.82;;;3.30;;
39880;SDS011;25554;44.954;10.068;2022-11-04T19:03:32;5.82;;;4.40;;
39880;SDS011;25554;44.954;10.068;2022-11-04T19:06:03;7.55;;;4.78;;
39880;SDS011;25554;44.954;10.068;2022-11-04T19:08:34;6.32;;;3.40;;
39880;SDS011;25554;44.954;10.068;2022-11-04T19:11:07;3.55;;;2.72;;
39880;SDS011;25554;44.954;10.068;2022-11-04T19:13:36;6.95;;;2.65;;
39880;SDS011;25554;44.954;10.068;2022-11-04T19:18:31;3.40;;;2.38;;
39880;SDS011;25554;44.954;10.068;2022-11-04T19:23:29;3.92;;;1.77;;
39880;SDS011;25554;44.954;10.068;2022-11-04T19:25:56;4.63;;;2.85;;
39880;SDS011;25554;44.954;10.068;2022-11-04T19:28:23;4.78;;;2.60;;
39880;SDS011;25554;44.954;10.068;2022-11-04T19:30:56;4.72;;;3.05;;
39880;SDS011;25554;44.954;10.068;2022-11-04T19:33:27;4.10;;;2.55;;
39880;SDS011;25554;44.954;10.068;2022-11-04T19:35:53;4.63;;;2.80;;
39880;SDS011;25554;44.954;10.068;2022-11-04T19:38:20;3.78;;;2.70;;
39880;SDS011;25554;44.954;10.068;2022-11-04T19:40:49;3.17;;;2.70;;
39880;SDS011;25554;44.954;10.068;2022-11-04T19:43:17;5.07;;;2.65;;
39880;SDS011;25554;44.954;10.068;2022-11-04T19:45:44;3.75;;;2.80;;
39880;SDS011;25554;44.954;10.068;2022-11-04T19:48:14;7.43;;;2.83;;
39880;SDS011;25554;44.954;10.068;2022-11-04T19:50:42;5.47;;;3.10;;
39880;SDS011;25554;44.954;10.068;2022-11-04T19:53:11;5.45;;;3.53;;
39880;SDS011;25554;44.954;10.068;2022-11-04T19:55:38;5.93;;;2.75;;
39880;SDS011;25554;44.954;10.068;2022-11-04T19:58:04;5.63;;;3.03;;
39880;SDS011;25554;44.954;10.068;2022-11-04T20:00:32;6.47;;;3.50;;
39880;SDS011;25554;44.954;10.068;2022-11-04T20:05:24;5.65;;;2.97;;
39880;SDS011;25554;44.954;10.068;2022-11-04T20:07:51;5.03;;;3.05;;
39880;SDS011;25554;44.954;10.068;2022-11-04T20:10:20;2.90;;;2.60;;
39880;SDS011;25554;44.954;10.068;2022-11-04T20:12:48;4.20;;;3.05;;
39880;SDS011;25554;44.954;10.068;2022-11-04T20:15:33;5.45;;;3.28;;